ADDS METAR Data INFO
IDs: Format: Raw Decoded Include TAF

Data at: 1942 UTC 17 Feb 2018

KCFE 171935Z AUTO 29011KT 10SM SCT045 02/M08 A2989 RMK AO2 T00211085
KCFE 171915Z AUTO 28009KT 10SM SCT045 02/M08 A2989 RMK AO2 T00201079
KCFE 171855Z AUTO 27007G14KT 10SM CLR 02/M08 A2988 RMK AO2 T00191078
KCFE 171835Z AUTO 29010KT 10SM CLR 01/M08 A2988 RMK AO2 T00121078
KCFE 171815Z AUTO 27009KT 10SM CLR 01/M07 A2989 RMK AO2 T00061073
KCFE 171755Z AUTO 31009KT 10SM CLR 00/M07 A2989 RMK AO2 T00001071 10002 21055
KCFE 171735Z AUTO 31008KT 10SM CLR 00/M07 A2989 RMK AO2 T00011071
KCFE 171715Z AUTO 26008KT 10SM CLR 00/M07 A2989 RMK AO2 T10041070
KCFE 171655Z AUTO 27007KT 10SM CLR M01/M07 A2989 RMK AO2 T10101067
KCFE 171635Z AUTO 26006KT 10SM CLR M02/M07 A2989 RMK AO2 T10201066
KCFE 171615Z AUTO 26005KT 10SM SCT023 M02/M06 A2989 RMK AO2 T10231062
KCFE 171555Z AUTO 23004KT 10SM SCT023 M03/M06 A2988 RMK AO2 T10261060
KCFE 171535Z AUTO 23003KT 10SM CLR M03/M06 A2988 RMK AO2 T10311062
KCFE 171515Z AUTO 22004KT 10SM CLR M03/M06 A2988 RMK AO2 T10351065
KCFE 171455Z AUTO 20003KT 10SM CLR M04/M07 A2987 RMK AO2 T10411072
KCFE 171435Z AUTO 18003KT 10SM CLR M04/M08 A2987 RMK AO2 T10451077
KCFE 171415Z AUTO 00000KT 10SM CLR M05/M08 A2988 RMK AO2 T10481080
KCFE 171355Z AUTO 19003KT 10SM CLR M05/M08 A2987 RMK AO2 T10501081
KCFE 171335Z AUTO 00000KT 10SM SCT032 SCT039 SCT046 M05/M08 A2987 RMK AO2 T10501083
KCFE 171315Z AUTO 00000KT 7SM -SN BKN022 BKN031 OVC046 M05/M09 A2986 RMK AO2 T10501086
KCFE 171255Z AUTO 20003KT 10SM BKN023 BKN029 OVC046 M05/M09 A2986 RMK AO2 T10511090
KCFE 171235Z AUTO 20003KT 10SM SCT038 BKN046 OVC060 M05/M09 A2985 RMK AO2 T10531092
KCFE 171215Z AUTO 20003KT 10SM BKN060 OVC070 M05/M09 A2985 RMK AO2 T10551094
KCFE 171155Z AUTO 18005KT 10SM SCT055 SCT065 BKN080 M06/M10 A2985 RMK AO2 T10561096 11056 21077
KCFE 171135Z AUTO 19004KT 10SM BKN065 BKN075 M06/M10 A2985 RMK AO2 T10561096
KCFE 171115Z AUTO 19005KT 10SM BKN065 OVC075 M06/M10 A2986 RMK AO2 T10571098
KCFE 171055Z AUTO 19004KT 10SM BKN065 OVC075 M06/M10 A2986 RMK AO2 T10581101
KCFE 171035Z AUTO 19006KT 10SM OVC075 M06/M10 A2987 RMK AO2 T10571100
KCFE 171015Z AUTO 19005KT 10SM OVC075 M06/M10 A2987 RMK AO2 T10611105
KCFE 170955Z AUTO 19005KT 10SM OVC075 M06/M11 A2987 RMK AO2 T10631106
KCFE 170935Z AUTO 19005KT 10SM BKN075 OVC085 M06/M11 A2988 RMK AO2 T10651108
KCFE 170915Z AUTO 20006KT 10SM OVC080 M06/M11 A2989 RMK AO2 T10651110
KCFE 170855Z AUTO 20006KT 10SM OVC080 M06/M11 A2990 RMK AO2 T10651110
KCFE 170835Z AUTO 19008KT 10SM OVC090 M07/M11 A2991 RMK AO2 T10661111
KCFE 170815Z AUTO 18008KT 10SM OVC090 M07/M11 A2991 RMK AO2 T10661111
KCFE 170755Z AUTO 18008KT 10SM BKN100 M07/M11 A2992 RMK AO2 T10701114
KCFE 170735Z AUTO 18008G16KT 150V210 10SM SCT110 M07/M11 A2992 RMK AO2 T10701115
KCFE 170715Z AUTO 19007G16KT 10SM CLR M07/M11 A2992 RMK AO2 T10711115
KCFE 170655Z AUTO 19007G15KT 10SM CLR M07/M12 A2992 RMK AO2 T10731116
KCFE 170635Z AUTO 18006KT 10SM SCT070 M08/M12 A2993 RMK AO2 T10761119
KCFE 170615Z AUTO 18007KT 10SM BKN070 M08/M12 A2994 RMK AO2 T10761120
KCFE 170555Z AUTO 18010G14KT 10SM SCT070 M08/M12 A2996 RMK AO2 T10781121 11078 21105 410561188
KCFE 170535Z AUTO 18010G16KT 10SM CLR M08/M12 A2997 RMK AO2 T10801122
KCFE 170515Z AUTO 18010G16KT 10SM CLR M08/M12 A2998 RMK AO2 T10811123
KCFE 170455Z AUTO 18009KT 10SM CLR M08/M12 A3000 RMK AO2 T10851125
KCFE 170435Z AUTO 18009KT 10SM CLR M08/M12 A3001 RMK AO2 T10851125
KCFE 170415Z AUTO 18007KT 10SM CLR M09/M13 A3001 RMK AO2 T10891129
KCFE 170355Z AUTO 19008KT 10SM CLR M09/M13 A3002 RMK AO2 T10901131
KCFE 170335Z AUTO 18010KT 10SM CLR M09/M13 A3003 RMK AO2 T10931135
KCFE 170315Z AUTO 18007KT 10SM CLR M09/M14 A3004 RMK AO2 T10951140
KCFE 170255Z AUTO 18006KT 10SM CLR M10/M15 A3004 RMK AO2 T11001146
KCFE 170235Z AUTO 17005KT 10SM CLR M10/M15 A3005 RMK AO2 T11031153
KCFE 170215Z AUTO 18008KT 10SM CLR M10/M16 A3006 RMK AO2 T11051156
KCFE 170155Z AUTO 17007KT 10SM CLR M10/M16 A3008 RMK AO2 T11051160
KCFE 170135Z AUTO 17006KT 10SM CLR M10/M16 A3010 RMK AO2 T11021160
KCFE 170115Z AUTO 17008KT 10SM CLR M10/M16 A3010 RMK AO2 T11001160
KCFE 170055Z AUTO 17008KT 10SM CLR M10/M16 A3010 RMK AO2 T10961158
KCFE 170035Z AUTO 17008KT 10SM CLR M09/M16 A3010 RMK AO2 T10951160
KCFE 170015Z AUTO 18009KT 10SM CLR M09/M16 A3011 RMK AO2 T10931161
KCFE 162355Z AUTO 17010KT 10SM CLR M09/M16 A3013 RMK AO2 T10931165 11056 21098
KCFE 162335Z AUTO 18009KT 10SM CLR M09/M16 A3013 RMK AO2 T10901164
KCFE 162315Z AUTO 18008KT 10SM CLR M08/M16 A3014 RMK AO2 T10851161
KCFE 162255Z AUTO 16008KT 10SM CLR M08/M16 A3013 RMK AO2 T10851160
KCFE 162235Z AUTO 17008KT 10SM CLR M08/M16 A3016 RMK AO2 T10821159
KCFE 162215Z AUTO 17008KT 10SM CLR M08/M16 A3018 RMK AO2 T10791156
KCFE 162155Z AUTO 17008G17KT 10SM CLR M08/M16 A3018 RMK AO2 T10771157
KCFE 162135Z AUTO 18008G16KT 10SM CLR M07/M15 A3019 RMK AO2 T10751153
KCFE 162115Z AUTO 18009G14KT 140V210 10SM CLR M07/M15 A3019 RMK AO2 T10711147
KCFE 162055Z AUTO 18008KT 10SM CLR M07/M14 A3021 RMK AO2 T10661145
KCFE 162035Z AUTO 19009G17KT 10SM CLR M06/M15 A3022 RMK AO2 T10631150
KCFE 162015Z AUTO 19009KT 10SM CLR M06/M16 A3022 RMK AO2 T10581162
KCFE 161955Z AUTO 20009KT 10SM CLR M06/M17 A3024 RMK AO2 T10621167
KCFE 161935Z AUTO 20012G15KT 10SM CLR M07/M17 A3026 RMK AO2 T10681170
KCFE 161915Z AUTO 21010G15KT 10SM CLR M07/M17 A3027 RMK AO2 T10741174
KCFE 161855Z AUTO 20010G14KT 10SM CLR M08/M18 A3028 RMK AO2 T10811178
KCFE 161835Z AUTO 20008KT 10SM CLR M09/M18 A3028 RMK AO2 T10861180
KCFE 161815Z AUTO 24008KT 10SM CLR M09/M18 A3030 RMK AO2 T10911181
KCFE 161755Z AUTO 21008KT 10SM CLR M10/M19 A3031 RMK AO2 T11001192 11100 21188
KCFE 161735Z AUTO 21009KT 10SM CLR M10/M19 A3031 RMK AO2 T11041188
KCFE 161715Z AUTO 23006KT 10SM CLR M11/M19 A3033 RMK AO2 T11101187
KCFE 161655Z AUTO 23006KT 10SM CLR M11/M19 A3033 RMK AO2 T11151190
KCFE 161635Z AUTO 22006KT 10SM CLR M12/M19 A3033 RMK AO2 T11221190
KCFE 161615Z AUTO 23006KT 10SM CLR M13/M19 A3033 RMK AO2 T11291188
KCFE 161555Z AUTO 23007KT 10SM CLR M14/M19 A3035 RMK AO2 T11401193
KCFE 161535Z AUTO 23006KT 10SM CLR M15/M20 A3036 RMK AO2 T11461197
KCFE 161515Z AUTO 23005KT 10SM CLR M15/M20 A3036 RMK AO2 T11511200
KCFE 161455Z AUTO 22004KT 10SM CLR M16/M20 A3036 RMK AO2 T11591203
KCFE 161435Z AUTO 22003KT 10SM CLR M16/M20 A3036 RMK AO2 T11651205
KCFE 161415Z AUTO 24005KT 10SM CLR M17/M21 A3036 RMK AO2 T11751211
KCFE 161355Z AUTO 24005KT 10SM CLR M18/M21 A3036 RMK AO2 T11801213
KCFE 161335Z AUTO 00000KT 10SM CLR M19/M22 A3036 RMK AO2 T11861218
KCFE 161315Z AUTO 22003KT 10SM CLR M19/M22 A3035 RMK AO2 T11861220
KCFE 161255Z AUTO 25003KT 10SM CLR M18/M22 A3035 RMK AO2 T11851220
KCFE 161235Z AUTO 24004KT 10SM CLR M18/M22 A3035 RMK AO2 T11831218
KCFE 161215Z AUTO 25004KT 10SM CLR M18/M22 A3036 RMK AO2 T11811218
KCFE 161155Z AUTO 26006KT 10SM CLR M18/M22 A3035 RMK AO2 T11801219 11137 21181
KCFE 161135Z AUTO 25006KT 10SM CLR M18/M22 A3036 RMK AO2 T11811220
KCFE 161115Z AUTO 26004KT 10SM CLR M18/M22 A3035 RMK AO2 T11801223
KCFE 161055Z AUTO 26004KT 10SM CLR M18/M22 A3035 RMK AO2 T11781224
KCFE 161035Z AUTO 27004KT 10SM CLR M18/M22 A3035 RMK AO2 T11761225
KCFE 161015Z AUTO 26003KT 10SM CLR M17/M23 A3035 RMK AO2 T11751228
KCFE 160955Z AUTO 28006KT 10SM CLR M17/M23 A3035 RMK AO2 T11721227
KCFE 160935Z AUTO 29007KT 10SM CLR M17/M23 A3035 RMK AO2 T11711232
KCFE 160915Z AUTO 29008KT 10SM CLR M17/M23 A3035 RMK AO2 T11701235
KCFE 160855Z AUTO 30007KT 10SM CLR M17/M23 A3034 RMK AO2 T11691235
KCFE 160835Z AUTO 29008KT 10SM CLR M17/M24 A3033 RMK AO2 T11671238
KCFE 160815Z AUTO 29006KT 10SM CLR M16/M24 A3032 RMK AO2 T11651241
KCFE 160755Z AUTO 30011KT 10SM CLR M16/M25 A3032 RMK AO2 T11611247